sensor_id;sensor_type;location;lat;lon;timestamp;P1;durP1;ratioP1;P2;durP2;ratioP2
13171;SDS011;6651;53.200;10.432;2022-07-10T00:00:44;5.32;;;1.52;;
13171;SDS011;6651;53.200;10.432;2022-07-10T00:03:10;3.20;;;1.20;;
13171;SDS011;6651;53.200;10.432;2022-07-10T00:05:39;3.20;;;1.20;;
13171;SDS011;6651;53.200;10.432;2022-07-10T00:08:14;3.97;;;1.40;;
13171;SDS011;6651;53.200;10.432;2022-07-10T00:10:40;5.18;;;1.50;;
13171;SDS011;6651;53.200;10.432;2022-07-10T00:13:06;4.18;;;1.27;;
13171;SDS011;6651;53.200;10.432;2022-07-10T00:15:31;3.35;;;1.23;;
13171;SDS011;6651;53.200;10.432;2022-07-10T00:17:57;1.75;;;0.90;;
13171;SDS011;6651;53.200;10.432;2022-07-10T00:20:23;2.63;;;1.10;;
13171;SDS011;6651;53.200;10.432;2022-07-10T00:22:51;3.17;;;1.02;;
13171;SDS011;6651;53.200;10.432;2022-07-10T00:25:16;3.33;;;1.10;;
13171;SDS011;6651;53.200;10.432;2022-07-10T00:27:45;3.67;;;1.40;;
13171;SDS011;6651;53.200;10.432;2022-07-10T00:30:16;4.50;;;1.52;;
13171;SDS011;6651;53.200;10.432;2022-07-10T00:32:44;2.88;;;0.90;;
13171;SDS011;6651;53.200;10.432;2022-07-10T00:35:13;4.95;;;1.20;;
13171;SDS011;6651;53.200;10.432;2022-07-10T00:37:39;3.85;;;1.40;;
13171;SDS011;6651;53.200;10.432;2022-07-10T00:40:05;4.43;;;1.33;;
13171;SDS011;6651;53.200;10.432;2022-07-10T00:42:31;4.35;;;1.30;;
13171;SDS011;6651;53.200;10.432;2022-07-10T00:44:56;3.80;;;1.40;;
13171;SDS011;6651;53.200;10.432;2022-07-10T00:47:22;4.07;;;1.35;;
13171;SDS011;6651;53.200;10.432;2022-07-10T00:49:48;3.65;;;1.20;;
13171;SDS011;6651;53.200;10.432;2022-07-10T00:52:17;3.95;;;1.45;;
13171;SDS011;6651;53.200;10.432;2022-07-10T00:54:47;4.32;;;1.48;;
13171;SDS011;6651;53.200;10.432;2022-07-10T00:57:15;3.63;;;1.40;;
13171;SDS011;6651;53.200;10.432;2022-07-10T00:59:42;5.47;;;1.40;;
13171;SDS011;6651;53.200;10.432;2022-07-10T01:02:09;4.40;;;1.40;;
13171;SDS011;6651;53.200;10.432;2022-07-10T01:04:35;4.90;;;1.73;;
13171;SDS011;6651;53.200;10.432;2022-07-10T01:07:01;3.67;;;1.20;;
13171;SDS011;6651;53.200;10.432;2022-07-10T01:09:27;2.88;;;1.48;;
13171;SDS011;6651;53.200;10.432;2022-07-10T01:11:54;5.57;;;1.63;;
13171;SDS011;6651;53.200;10.432;2022-07-10T01:14:21;5.68;;;1.67;;
13171;SDS011;6651;53.200;10.432;2022-07-10T01:16:47;4.82;;;1.17;;
13171;SDS011;6651;53.200;10.432;2022-07-10T01:19:13;5.20;;;1.50;;
13171;SDS011;6651;53.200;10.432;2022-07-10T01:21:39;3.50;;;1.27;;
13171;SDS011;6651;53.200;10.432;2022-07-10T01:24:08;4.45;;;1.35;;
13171;SDS011;6651;53.200;10.432;2022-07-10T01:26:35;4.78;;;1.50;;
13171;SDS011;6651;53.200;10.432;2022-07-10T01:29:05;5.32;;;1.40;;
13171;SDS011;6651;53.200;10.432;2022-07-10T01:31:31;3.83;;;1.27;;
13171;SDS011;6651;53.200;10.432;2022-07-10T01:33:59;2.88;;;1.15;;
13171;SDS011;6651;53.200;10.432;2022-07-10T01:36:27;4.65;;;1.15;;
13171;SDS011;6651;53.200;10.432;2022-07-10T01:38:54;3.13;;;1.45;;
13171;SDS011;6651;53.200;10.432;2022-07-10T01:41:21;3.33;;;1.33;;
13171;SDS011;6651;53.200;10.432;2022-07-10T01:43:46;5.00;;;1.45;;
13171;SDS011;6651;53.200;10.432;2022-07-10T01:46:13;3.53;;;1.23;;
13171;SDS011;6651;53.200;10.432;2022-07-10T01:48:39;3.33;;;1.58;;
13171;SDS011;6651;53.200;10.432;2022-07-10T01:51:05;3.75;;;1.27;;
13171;SDS011;6651;53.200;10.432;2022-07-10T01:53:32;3.65;;;1.45;;
13171;SDS011;6651;53.200;10.432;2022-07-10T01:55:58;2.70;;;1.27;;
13171;SDS011;6651;53.200;10.432;2022-07-10T01:58:25;2.05;;;1.02;;
13171;SDS011;6651;53.200;10.432;2022-07-10T02:00:51;4.93;;;1.05;;
13171;SDS011;6651;53.200;10.432;2022-07-10T02:03:16;4.25;;;1.38;;
13171;SDS011;6651;53.200;10.432;2022-07-10T02:06:01;5.43;;;1.52;;
13171;SDS011;6651;53.200;10.432;2022-07-10T02:08:26;3.35;;;1.20;;
13171;SDS011;6651;53.200;10.432;2022-07-10T02:10:52;4.05;;;1.27;;
13171;SDS011;6651;53.200;10.432;2022-07-10T02:13:17;5.55;;;1.52;;
13171;SDS011;6651;53.200;10.432;2022-07-10T02:15:45;3.20;;;1.27;;
13171;SDS011;6651;53.200;10.432;2022-07-10T02:18:12;4.53;;;1.20;;
13171;SDS011;6651;53.200;10.432;2022-07-10T02:20:38;3.50;;;1.50;;
13171;SDS011;6651;53.200;10.432;2022-07-10T02:23:04;4.25;;;1.52;;
13171;SDS011;6651;53.200;10.432;2022-07-10T02:25:31;3.42;;;1.23;;
13171;SDS011;6651;53.200;10.432;2022-07-10T02:27:57;4.10;;;1.40;;
13171;SDS011;6651;53.200;10.432;2022-07-10T02:30:23;4.45;;;1.70;;
13171;SDS011;6651;53.200;10.432;2022-07-10T02:32:49;4.15;;;1.45;;
13171;SDS011;6651;53.200;10.432;2022-07-10T02:35:14;3.97;;;1.23;;
13171;SDS011;6651;53.200;10.432;2022-07-10T02:37:40;3.40;;;1.35;;
13171;SDS011;6651;53.200;10.432;2022-07-10T02:40:06;3.72;;;1.23;;
13171;SDS011;6651;53.200;10.432;2022-07-10T02:42:32;4.93;;;1.33;;
13171;SDS011;6651;53.200;10.432;2022-07-10T02:44:58;5.75;;;1.65;;
13171;SDS011;6651;53.200;10.432;2022-07-10T02:47:23;4.63;;;1.48;;
13171;SDS011;6651;53.200;10.432;2022-07-10T02:49:49;3.90;;;1.55;;
13171;SDS011;6651;53.200;10.432;2022-07-10T02:52:15;7.57;;;1.75;;
13171;SDS011;6651;53.200;10.432;2022-07-10T02:54:40;5.18;;;1.45;;
13171;SDS011;6651;53.200;10.432;2022-07-10T02:57:06;5.32;;;1.70;;
13171;SDS011;6651;53.200;10.432;2022-07-10T02:59:31;4.95;;;1.67;;
13171;SDS011;6651;53.200;10.432;2022-07-10T03:01:57;4.13;;;1.58;;
13171;SDS011;6651;53.200;10.432;2022-07-10T03:04:23;4.18;;;1.50;;
13171;SDS011;6651;53.200;10.432;2022-07-10T03:06:48;3.80;;;1.38;;
13171;SDS011;6651;53.200;10.432;2022-07-10T03:09:14;3.17;;;1.48;;
13171;SDS011;6651;53.200;10.432;2022-07-10T03:11:39;6.45;;;1.58;;
13171;SDS011;6651;53.200;10.432;2022-07-10T03:14:05;4.80;;;1.80;;
13171;SDS011;6651;53.200;10.432;2022-07-10T03:16:31;7.10;;;2.00;;
13171;SDS011;6651;53.200;10.432;2022-07-10T03:18:57;5.20;;;1.40;;
13171;SDS011;6651;53.200;10.432;2022-07-10T03:21:22;6.28;;;1.98;;
13171;SDS011;6651;53.200;10.432;2022-07-10T03:23:48;5.82;;;1.80;;
13171;SDS011;6651;53.200;10.432;2022-07-10T03:26:15;5.30;;;1.67;;
13171;SDS011;6651;53.200;10.432;2022-07-10T03:28:40;5.00;;;1.48;;
13171;SDS011;6651;53.200;10.432;2022-07-10T03:31:06;8.55;;;1.70;;
13171;SDS011;6651;53.200;10.432;2022-07-10T03:33:32;4.35;;;1.60;;
13171;SDS011;6651;53.200;10.432;2022-07-10T03:35:58;5.53;;;1.70;;
13171;SDS011;6651;53.200;10.432;2022-07-10T03:38:26;7.47;;;1.90;;
13171;SDS011;6651;53.200;10.432;2022-07-10T03:40:52;4.47;;;1.42;;
13171;SDS011;6651;53.200;10.432;2022-07-10T03:43:18;5.47;;;1.70;;
13171;SDS011;6651;53.200;10.432;2022-07-10T03:45:44;5.90;;;1.95;;
13171;SDS011;6651;53.200;10.432;2022-07-10T03:48:09;6.22;;;1.60;;
13171;SDS011;6651;53.200;10.432;2022-07-10T03:50:35;6.18;;;1.60;;
13171;SDS011;6651;53.200;10.432;2022-07-10T03:53:00;6.22;;;1.60;;
13171;SDS011;6651;53.200;10.432;2022-07-10T03:55:26;6.22;;;1.80;;
13171;SDS011;6651;53.200;10.432;2022-07-10T03:57:52;4.65;;;1.63;;
13171;SDS011;6651;53.200;10.432;2022-07-10T04:00:24;4.97;;;1.70;;
13171;SDS011;6651;53.200;10.432;2022-07-10T04:03:01;7.13;;;1.75;;
13171;SDS011;6651;53.200;10.432;2022-07-10T04:05:29;5.72;;;2.10;;
13171;SDS011;6651;53.200;10.432;2022-07-10T04:07:55;4.70;;;1.90;;
13171;SDS011;6651;53.200;10.432;2022-07-10T04:10:22;5.72;;;1.98;;
13171;SDS011;6651;53.200;10.432;2022-07-10T04:12:48;6.28;;;1.70;;
13171;SDS011;6651;53.200;10.432;2022-07-10T04:15:15;6.38;;;2.00;;
13171;SDS011;6651;53.200;10.432;2022-07-10T04:17:41;6.10;;;1.80;;
13171;SDS011;6651;53.200;10.432;2022-07-10T04:20:07;7.25;;;1.88;;
13171;SDS011;6651;53.200;10.432;2022-07-10T04:22:33;5.78;;;2.10;;
13171;SDS011;6651;53.200;10.432;2022-07-10T04:24:59;8.02;;;2.15;;
13171;SDS011;6651;53.200;10.432;2022-07-10T04:27:25;7.68;;;2.47;;
13171;SDS011;6651;53.200;10.432;2022-07-10T04:29:50;9.48;;;2.28;;
13171;SDS011;6651;53.200;10.432;2022-07-10T04:32:16;7.20;;;1.90;;
13171;SDS011;6651;53.200;10.432;2022-07-10T04:34:42;7.32;;;1.92;;
13171;SDS011;6651;53.200;10.432;2022-07-10T04:37:07;7.38;;;2.10;;
13171;SDS011;6651;53.200;10.432;2022-07-10T04:39:34;5.35;;;1.90;;
13171;SDS011;6651;53.200;10.432;2022-07-10T04:42:00;8.05;;;2.22;;
13171;SDS011;6651;53.200;10.432;2022-07-10T04:44:28;5.22;;;1.98;;
13171;SDS011;6651;53.200;10.432;2022-07-10T04:46:54;6.28;;;2.20;;
13171;SDS011;6651;53.200;10.432;2022-07-10T04:49:19;7.60;;;2.10;;
13171;SDS011;6651;53.200;10.432;2022-07-10T04:51:45;5.95;;;2.03;;
13171;SDS011;6651;53.200;10.432;2022-07-10T04:54:11;7.57;;;1.90;;
13171;SDS011;6651;53.200;10.432;2022-07-10T04:56:37;7.00;;;2.08;;
13171;SDS011;6651;53.200;10.432;2022-07-10T04:59:02;8.13;;;2.42;;
13171;SDS011;6651;53.200;10.432;2022-07-10T05:01:28;7.40;;;2.30;;
13171;SDS011;6651;53.200;10.432;2022-07-10T05:03:54;6.95;;;2.30;;
13171;SDS011;6651;53.200;10.432;2022-07-10T05:06:20;9.05;;;2.33;;
13171;SDS011;6651;53.200;10.432;2022-07-10T05:08:46;8.45;;;2.58;;
13171;SDS011;6651;53.200;10.432;2022-07-10T05:11:11;7.80;;;2.58;;
13171;SDS011;6651;53.200;10.432;2022-07-10T05:13:37;10.15;;;2.50;;
13171;SDS011;6651;53.200;10.432;2022-07-10T05:16:04;7.03;;;2.20;;
13171;SDS011;6651;53.200;10.432;2022-07-10T05:18:30;6.40;;;2.60;;
13171;SDS011;6651;53.200;10.432;2022-07-10T05:20:55;9.25;;;2.45;;
13171;SDS011;6651;53.200;10.432;2022-07-10T05:23:21;10.13;;;2.72;;
13171;SDS011;6651;53.200;10.432;2022-07-10T05:25:47;6.53;;;2.38;;
13171;SDS011;6651;53.200;10.432;2022-07-10T05:28:13;12.23;;;2.65;;
13171;SDS011;6651;53.200;10.432;2022-07-10T05:30:39;8.13;;;2.20;;
13171;SDS011;6651;53.200;10.432;2022-07-10T05:33:06;8.63;;;2.63;;
13171;SDS011;6651;53.200;10.432;2022-07-10T05:35:32;8.52;;;2.60;;
13171;SDS011;6651;53.200;10.432;2022-07-10T05:37:58;8.07;;;2.60;;
13171;SDS011;6651;53.200;10.432;2022-07-10T05:40:24;6.97;;;2.70;;
13171;SDS011;6651;53.200;10.432;2022-07-10T05:42:49;7.45;;;2.60;;
13171;SDS011;6651;53.200;10.432;2022-07-10T05:45:15;9.60;;;2.78;;
13171;SDS011;6651;53.200;10.432;2022-07-10T05:47:43;9.43;;;2.80;;
13171;SDS011;6651;53.200;10.432;2022-07-10T05:50:09;10.68;;;3.20;;
13171;SDS011;6651;53.200;10.432;2022-07-10T05:52:36;11.73;;;3.22;;
13171;SDS011;6651;53.200;10.432;2022-07-10T05:55:02;8.73;;;2.80;;
13171;SDS011;6651;53.200;10.432;2022-07-10T05:57:29;8.10;;;2.67;;
13171;SDS011;6651;53.200;10.432;2022-07-10T05:59:56;8.82;;;2.83;;
13171;SDS011;6651;53.200;10.432;2022-07-10T06:02:22;12.10;;;3.05;;
13171;SDS011;6651;53.200;10.432;2022-07-10T06:04:47;8.32;;;3.03;;
13171;SDS011;6651;53.200;10.432;2022-07-10T06:07:14;9.90;;;2.95;;
13171;SDS011;6651;53.200;10.432;2022-07-10T06:09:40;8.85;;;2.88;;
13171;SDS011;6651;53.200;10.432;2022-07-10T06:12:06;12.05;;;3.33;;
13171;SDS011;6651;53.200;10.432;2022-07-10T06:14:32;9.60;;;3.28;;
13171;SDS011;6651;53.200;10.432;2022-07-10T06:16:57;10.50;;;2.75;;
13171;SDS011;6651;53.200;10.432;2022-07-10T06:19:23;8.85;;;3.08;;
13171;SDS011;6651;53.200;10.432;2022-07-10T06:21:48;11.07;;;3.00;;
13171;SDS011;6651;53.200;10.432;2022-07-10T06:24:34;10.45;;;3.05;;
13171;SDS011;6651;53.200;10.432;2022-07-10T06:27:00;8.52;;;3.15;;
13171;SDS011;6651;53.200;10.432;2022-07-10T06:29:25;9.05;;;3.00;;
13171;SDS011;6651;53.200;10.432;2022-07-10T06:31:51;9.02;;;3.05;;
13171;SDS011;6651;53.200;10.432;2022-07-10T06:34:16;10.05;;;3.17;;
13171;SDS011;6651;53.200;10.432;2022-07-10T06:36:42;10.15;;;3.03;;
13171;SDS011;6651;53.200;10.432;2022-07-10T06:39:07;11.30;;;3.15;;
13171;SDS011;6651;53.200;10.432;2022-07-10T06:41:33;11.50;;;3.05;;
13171;SDS011;6651;53.200;10.432;2022-07-10T06:43:59;12.00;;;3.55;;
13171;SDS011;6651;53.200;10.432;2022-07-10T06:46:26;12.13;;;3.15;;
13171;SDS011;6651;53.200;10.432;2022-07-10T06:48:52;11.52;;;3.38;;
13171;SDS011;6651;53.200;10.432;2022-07-10T06:51:17;12.80;;;3.20;;
13171;SDS011;6651;53.200;10.432;2022-07-10T06:53:43;13.40;;;3.25;;
13171;SDS011;6651;53.200;10.432;2022-07-10T06:56:09;9.40;;;3.13;;
13171;SDS011;6651;53.200;10.432;2022-07-10T06:58:35;9.07;;;2.90;;
13171;SDS011;6651;53.200;10.432;2022-07-10T07:01:01;12.77;;;3.20;;
13171;SDS011;6651;53.200;10.432;2022-07-10T07:03:26;12.13;;;3.38;;
13171;SDS011;6651;53.200;10.432;2022-07-10T07:05:52;13.55;;;3.00;;
13171;SDS011;6651;53.200;10.432;2022-07-10T07:08:18;11.52;;;3.03;;
13171;SDS011;6651;53.200;10.432;2022-07-10T07:10:43;11.30;;;3.70;;
13171;SDS011;6651;53.200;10.432;2022-07-10T07:13:09;11.05;;;3.08;;
13171;SDS011;6651;53.200;10.432;2022-07-10T07:15:35;9.35;;;3.10;;
13171;SDS011;6651;53.200;10.432;2022-07-10T07:18:06;9.27;;;3.08;;
13171;SDS011;6651;53.200;10.432;2022-07-10T07:20:33;11.45;;;3.40;;
13171;SDS011;6651;53.200;10.432;2022-07-10T07:23:19;10.30;;;3.33;;
13171;SDS011;6651;53.200;10.432;2022-07-10T07:25:45;9.63;;;2.80;;
13171;SDS011;6651;53.200;10.432;2022-07-10T07:28:16;10.55;;;3.45;;
13171;SDS011;6651;53.200;10.432;2022-07-10T07:30:44;9.85;;;3.30;;
13171;SDS011;6651;53.200;10.432;2022-07-10T07:33:11;14.38;;;3.35;;
13171;SDS011;6651;53.200;10.432;2022-07-10T07:35:37;11.25;;;3.10;;
13171;SDS011;6651;53.200;10.432;2022-07-10T07:38:03;12.77;;;3.35;;
13171;SDS011;6651;53.200;10.432;2022-07-10T07:40:30;11.75;;;3.28;;
13171;SDS011;6651;53.200;10.432;2022-07-10T07:42:56;11.73;;;3.20;;
13171;SDS011;6651;53.200;10.432;2022-07-10T07:45:23;12.68;;;3.05;;
13171;SDS011;6651;53.200;10.432;2022-07-10T07:47:50;11.85;;;2.80;;
13171;SDS011;6651;53.200;10.432;2022-07-10T07:50:17;7.43;;;2.58;;
13171;SDS011;6651;53.200;10.432;2022-07-10T07:52:44;10.70;;;3.13;;
13171;SDS011;6651;53.200;10.432;2022-07-10T07:55:11;8.52;;;2.80;;
13171;SDS011;6651;53.200;10.432;2022-07-10T07:57:37;10.65;;;2.78;;
13171;SDS011;6651;53.200;10.432;2022-07-10T08:00:04;10.32;;;3.03;;
13171;SDS011;6651;53.200;10.432;2022-07-10T08:02:32;8.02;;;2.58;;
13171;SDS011;6651;53.200;10.432;2022-07-10T08:04:58;7.68;;;2.60;;
13171;SDS011;6651;53.200;10.432;2022-07-10T08:07:32;9.75;;;2.45;;
13171;SDS011;6651;53.200;10.432;2022-07-10T08:10:08;10.77;;;2.90;;
13171;SDS011;6651;53.200;10.432;2022-07-10T08:12:35;9.20;;;2.60;;
13171;SDS011;6651;53.200;10.432;2022-07-10T08:15:01;10.85;;;3.05;;
13171;SDS011;6651;53.200;10.432;2022-07-10T08:17:26;8.80;;;2.72;;
13171;SDS011;6651;53.200;10.432;2022-07-10T08:19:52;9.35;;;2.50;;
13171;SDS011;6651;53.200;10.432;2022-07-10T08:22:18;11.55;;;2.95;;
13171;SDS011;6651;53.200;10.432;2022-07-10T08:24:44;11.32;;;2.92;;
13171;SDS011;6651;53.200;10.432;2022-07-10T08:27:09;8.32;;;2.80;;
13171;SDS011;6651;53.200;10.432;2022-07-10T08:29:35;10.68;;;2.70;;
13171;SDS011;6651;53.200;10.432;2022-07-10T08:32:03;9.32;;;2.70;;
13171;SDS011;6651;53.200;10.432;2022-07-10T08:34:30;7.72;;;2.58;;
13171;SDS011;6651;53.200;10.432;2022-07-10T08:36:58;7.50;;;2.47;;
13171;SDS011;6651;53.200;10.432;2022-07-10T08:39:23;9.77;;;2.65;;
13171;SDS011;6651;53.200;10.432;2022-07-10T08:41:49;8.20;;;2.80;;
13171;SDS011;6651;53.200;10.432;2022-07-10T08:44:16;10.10;;;2.40;;
13171;SDS011;6651;53.200;10.432;2022-07-10T08:46:45;7.25;;;2.30;;
13171;SDS011;6651;53.200;10.432;2022-07-10T08:49:11;9.43;;;2.22;;
13171;SDS011;6651;53.200;10.432;2022-07-10T08:51:41;7.88;;;2.40;;
13171;SDS011;6651;53.200;10.432;2022-07-10T08:54:10;9.07;;;2.60;;
13171;SDS011;6651;53.200;10.432;2022-07-10T08:56:40;8.20;;;2.50;;
13171;SDS011;6651;53.200;10.432;2022-07-10T08:59:06;7.03;;;2.40;;
13171;SDS011;6651;53.200;10.432;2022-07-10T09:01:33;8.13;;;2.40;;
13171;SDS011;6651;53.200;10.432;2022-07-10T09:03:59;9.95;;;3.08;;
13171;SDS011;6651;53.200;10.432;2022-07-10T09:06:25;8.10;;;2.88;;
13171;SDS011;6651;53.200;10.432;2022-07-10T09:09:07;7.57;;;2.40;;
13171;SDS011;6651;53.200;10.432;2022-07-10T09:11:33;11.13;;;2.88;;
13171;SDS011;6651;53.200;10.432;2022-07-10T09:14:03;7.97;;;2.70;;
13171;SDS011;6651;53.200;10.432;2022-07-10T09:16:33;6.50;;;2.38;;
13171;SDS011;6651;53.200;10.432;2022-07-10T09:24:16;6.00;;;2.40;;
13171;SDS011;6651;53.200;10.432;2022-07-10T09:26:45;7.78;;;2.35;;
13171;SDS011;6651;53.200;10.432;2022-07-10T09:29:22;8.70;;;2.80;;
13171;SDS011;6651;53.200;10.432;2022-07-10T09:31:54;8.88;;;2.50;;
13171;SDS011;6651;53.200;10.432;2022-07-10T09:39:58;10.43;;;2.65;;
13171;SDS011;6651;53.200;10.432;2022-07-10T09:42:33;8.55;;;2.55;;
13171;SDS011;6651;53.200;10.432;2022-07-10T09:50:26;5.85;;;2.13;;
13171;SDS011;6651;53.200;10.432;2022-07-10T09:52:56;6.57;;;2.40;;
13171;SDS011;6651;53.200;10.432;2022-07-10T09:55:30;7.88;;;2.30;;
13171;SDS011;6651;53.200;10.432;2022-07-10T09:58:04;8.98;;;2.72;;
13171;SDS011;6651;53.200;10.432;2022-07-10T10:03:18;7.88;;;2.35;;
13171;SDS011;6651;53.200;10.432;2022-07-10T10:05:55;8.52;;;2.40;;
13171;SDS011;6651;53.200;10.432;2022-07-10T10:08:28;6.20;;;2.30;;
13171;SDS011;6651;53.200;10.432;2022-07-10T10:10:57;5.88;;;2.15;;
13171;SDS011;6651;53.200;10.432;2022-07-10T10:13:25;5.07;;;1.92;;
13171;SDS011;6651;53.200;10.432;2022-07-10T10:15:52;7.05;;;2.65;;
13171;SDS011;6651;53.200;10.432;2022-07-10T10:18:19;9.20;;;2.50;;
13171;SDS011;6651;53.200;10.432;2022-07-10T10:20:52;6.55;;;2.28;;
13171;SDS011;6651;53.200;10.432;2022-07-10T10:23:19;7.00;;;2.20;;
13171;SDS011;6651;53.200;10.432;2022-07-10T10:25:46;6.53;;;2.17;;
13171;SDS011;6651;53.200;10.432;2022-07-10T10:28:18;7.50;;;2.15;;
13171;SDS011;6651;53.200;10.432;2022-07-10T10:30:52;7.97;;;2.25;;
13171;SDS011;6651;53.200;10.432;2022-07-10T10:35:59;5.85;;;2.15;;
13171;SDS011;6651;53.200;10.432;2022-07-10T10:41:22;7.32;;;2.35;;
13171;SDS011;6651;53.200;10.432;2022-07-10T10:49:16;9.35;;;2.38;;
13171;SDS011;6651;53.200;10.432;2022-07-10T10:52:17;8.13;;;2.03;;
13171;SDS011;6651;53.200;10.432;2022-07-10T10:57:20;5.82;;;2.00;;
13171;SDS011;6651;53.200;10.432;2022-07-10T11:00:05;6.20;;;2.13;;
13171;SDS011;6651;53.200;10.432;2022-07-10T11:02:33;6.65;;;2.08;;
13171;SDS011;6651;53.200;10.432;2022-07-10T11:07:53;4.57;;;2.10;;
13171;SDS011;6651;53.200;10.432;2022-07-10T11:12:59;6.75;;;1.70;;
13171;SDS011;6651;53.200;10.432;2022-07-10T11:15:27;4.75;;;1.95;;
13171;SDS011;6651;53.200;10.432;2022-07-10T11:18:14;6.55;;;2.15;;
13171;SDS011;6651;53.200;10.432;2022-07-10T11:20:45;4.85;;;2.10;;
13171;SDS011;6651;53.200;10.432;2022-07-10T11:29:24;6.40;;;2.00;;
13171;SDS011;6651;53.200;10.432;2022-07-10T11:31:53;4.63;;;2.20;;
13171;SDS011;6651;53.200;10.432;2022-07-10T11:34:19;4.93;;;1.83;;
13171;SDS011;6651;53.200;10.432;2022-07-10T11:36:47;6.25;;;2.00;;
13171;SDS011;6651;53.200;10.432;2022-07-10T11:39:13;6.82;;;2.33;;
13171;SDS011;6651;53.200;10.432;2022-07-10T11:41:49;8.25;;;2.30;;
13171;SDS011;6651;53.200;10.432;2022-07-10T11:44:16;6.18;;;1.95;;
13171;SDS011;6651;53.200;10.432;2022-07-10T11:50:21;5.85;;;2.10;;
13171;SDS011;6651;53.200;10.432;2022-07-10T11:52:47;5.57;;;2.10;;
13171;SDS011;6651;53.200;10.432;2022-07-10T11:55:16;8.43;;;2.40;;
13171;SDS011;6651;53.200;10.432;2022-07-10T11:57:46;6.25;;;2.10;;
13171;SDS011;6651;53.200;10.432;2022-07-10T12:00:25;7.97;;;2.10;;
13171;SDS011;6651;53.200;10.432;2022-07-10T12:06:23;8.70;;;2.67;;
13171;SDS011;6651;53.200;10.432;2022-07-10T12:09:06;5.60;;;2.17;;
13171;SDS011;6651;53.200;10.432;2022-07-10T12:11:36;8.57;;;2.30;;
13171;SDS011;6651;53.200;10.432;2022-07-10T12:19:37;6.50;;;2.30;;
13171;SDS011;6651;53.200;10.432;2022-07-10T12:22:06;5.70;;;2.08;;
13171;SDS011;6651;53.200;10.432;2022-07-10T12:24:33;6.18;;;2.08;;
13171;SDS011;6651;53.200;10.432;2022-07-10T12:26:58;6.70;;;2.10;;
13171;SDS011;6651;53.200;10.432;2022-07-10T12:29:32;5.80;;;2.08;;
13171;SDS011;6651;53.200;10.432;2022-07-10T12:31:58;6.60;;;2.30;;
13171;SDS011;6651;53.200;10.432;2022-07-10T12:34:36;6.25;;;1.88;;
13171;SDS011;6651;53.200;10.432;2022-07-10T12:37:11;5.60;;;1.83;;
13171;SDS011;6651;53.200;10.432;2022-07-10T12:39:38;10.57;;;2.38;;
13171;SDS011;6651;53.200;10.432;2022-07-10T12:42:24;7.40;;;2.03;;
13171;SDS011;6651;53.200;10.432;2022-07-10T12:44:53;5.45;;;1.90;;
13171;SDS011;6651;53.200;10.432;2022-07-10T12:47:19;6.55;;;1.83;;
13171;SDS011;6651;53.200;10.432;2022-07-10T12:49:49;4.95;;;1.80;;
13171;SDS011;6651;53.200;10.432;2022-07-10T12:52:35;5.68;;;1.65;;
13171;SDS011;6651;53.200;10.432;2022-07-10T12:57:56;6.35;;;2.08;;
13171;SDS011;6651;53.200;10.432;2022-07-10T13:00:27;5.22;;;1.90;;
13171;SDS011;6651;53.200;10.432;2022-07-10T13:02:59;7.55;;;2.25;;
13171;SDS011;6651;53.200;10.432;2022-07-10T13:05:34;6.10;;;2.20;;
13171;SDS011;6651;53.200;10.432;2022-07-10T13:10:48;5.43;;;1.92;;
13171;SDS011;6651;53.200;10.432;2022-07-10T13:13:16;5.40;;;1.90;;
13171;SDS011;6651;53.200;10.432;2022-07-10T13:15:43;6.68;;;2.10;;
13171;SDS011;6651;53.200;10.432;2022-07-10T13:18:21;8.40;;;2.05;;
13171;SDS011;6651;53.200;10.432;2022-07-10T13:20:50;6.30;;;2.25;;
13171;SDS011;6651;53.200;10.432;2022-07-10T13:23:17;6.15;;;2.10;;
13171;SDS011;6651;53.200;10.432;2022-07-10T13:25:50;4.25;;;1.85;;
13171;SDS011;6651;53.200;10.432;2022-07-10T13:28:19;6.10;;;2.00;;
13171;SDS011;6651;53.200;10.432;2022-07-10T13:30:45;7.18;;;2.33;;
13171;SDS011;6651;53.200;10.432;2022-07-10T13:33:11;6.03;;;2.00;;
13171;SDS011;6651;53.200;10.432;2022-07-10T13:35:37;6.72;;;2.38;;
13171;SDS011;6651;53.200;10.432;2022-07-10T13:38:03;8.77;;;1.95;;
13171;SDS011;6651;53.200;10.432;2022-07-10T13:40:30;6.20;;;1.80;;
13171;SDS011;6651;53.200;10.432;2022-07-10T13:42:58;5.22;;;2.17;;
13171;SDS011;6651;53.200;10.432;2022-07-10T13:45:24;4.53;;;1.70;;
13171;SDS011;6651;53.200;10.432;2022-07-10T13:47:55;6.05;;;2.00;;
13171;SDS011;6651;53.200;10.432;2022-07-10T13:50:21;6.65;;;2.08;;
13171;SDS011;6651;53.200;10.432;2022-07-10T13:52:47;6.50;;;2.00;;
13171;SDS011;6651;53.200;10.432;2022-07-10T13:55:13;6.05;;;1.90;;
13171;SDS011;6651;53.200;10.432;2022-07-10T13:57:39;6.53;;;1.90;;
13171;SDS011;6651;53.200;10.432;2022-07-10T14:00:05;5.93;;;2.05;;
13171;SDS011;6651;53.200;10.432;2022-07-10T14:02:31;5.57;;;2.00;;
13171;SDS011;6651;53.200;10.432;2022-07-10T14:04:57;7.43;;;2.05;;
13171;SDS011;6651;53.200;10.432;2022-07-10T14:07:23;6.00;;;2.10;;
13171;SDS011;6651;53.200;10.432;2022-07-10T14:09:48;6.07;;;2.10;;
13171;SDS011;6651;53.200;10.432;2022-07-10T14:12:14;4.47;;;1.80;;
13171;SDS011;6651;53.200;10.432;2022-07-10T14:14:40;5.30;;;1.70;;
13171;SDS011;6651;53.200;10.432;2022-07-10T14:17:05;7.78;;;2.20;;
13171;SDS011;6651;53.200;10.432;2022-07-10T14:19:31;4.50;;;2.00;;
13171;SDS011;6651;53.200;10.432;2022-07-10T14:21:57;5.85;;;2.20;;
13171;SDS011;6651;53.200;10.432;2022-07-10T14:24:24;6.22;;;2.30;;
13171;SDS011;6651;53.200;10.432;2022-07-10T14:26:49;7.22;;;2.15;;
13171;SDS011;6651;53.200;10.432;2022-07-10T14:29:17;6.63;;;1.98;;
13171;SDS011;6651;53.200;10.432;2022-07-10T14:31:42;6.30;;;2.13;;
13171;SDS011;6651;53.200;10.432;2022-07-10T14:34:10;6.65;;;1.90;;
13171;SDS011;6651;53.200;10.432;2022-07-10T14:36:36;5.70;;;1.90;;
13171;SDS011;6651;53.200;10.432;2022-07-10T14:39:01;5.18;;;1.58;;
13171;SDS011;6651;53.200;10.432;2022-07-10T14:41:27;6.82;;;2.13;;
13171;SDS011;6651;53.200;10.432;2022-07-10T14:43:53;5.75;;;2.20;;
13171;SDS011;6651;53.200;10.432;2022-07-10T14:46:18;6.32;;;2.15;;
13171;SDS011;6651;53.200;10.432;2022-07-10T14:48:44;5.47;;;2.00;;
13171;SDS011;6651;53.200;10.432;2022-07-10T14:51:10;5.75;;;1.80;;
13171;SDS011;6651;53.200;10.432;2022-07-10T14:53:35;6.35;;;2.03;;
13171;SDS011;6651;53.200;10.432;2022-07-10T14:56:02;4.80;;;2.15;;
13171;SDS011;6651;53.200;10.432;2022-07-10T14:58:28;7.20;;;2.40;;
13171;SDS011;6651;53.200;10.432;2022-07-10T15:00:54;6.65;;;2.00;;
13171;SDS011;6651;53.200;10.432;2022-07-10T15:03:20;6.20;;;1.90;;
13171;SDS011;6651;53.200;10.432;2022-07-10T15:05:45;6.43;;;2.10;;
13171;SDS011;6651;53.200;10.432;2022-07-10T15:08:11;4.65;;;1.98;;
13171;SDS011;6651;53.200;10.432;2022-07-10T15:10:37;7.40;;;2.25;;
13171;SDS011;6651;53.200;10.432;2022-07-10T15:13:03;6.38;;;1.85;;
13171;SDS011;6651;53.200;10.432;2022-07-10T15:15:32;7.57;;;1.90;;
13171;SDS011;6651;53.200;10.432;2022-07-10T15:17:58;4.88;;;2.10;;
13171;SDS011;6651;53.200;10.432;2022-07-10T15:20:24;6.13;;;1.98;;
13171;SDS011;6651;53.200;10.432;2022-07-10T15:22:49;8.20;;;2.33;;
13171;SDS011;6651;53.200;10.432;2022-07-10T15:25:15;6.18;;;2.20;;
13171;SDS011;6651;53.200;10.432;2022-07-10T15:27:41;5.50;;;1.90;;
13171;SDS011;6651;53.200;10.432;2022-07-10T15:30:07;5.75;;;2.13;;
13171;SDS011;6651;53.200;10.432;2022-07-10T15:32:36;6.18;;;2.10;;
13171;SDS011;6651;53.200;10.432;2022-07-10T15:35:02;6.55;;;2.05;;
13171;SDS011;6651;53.200;10.432;2022-07-10T15:37:27;8.63;;;2.75;;
13171;SDS011;6651;53.200;10.432;2022-07-10T15:39:54;5.30;;;1.95;;
13171;SDS011;6651;53.200;10.432;2022-07-10T15:42:20;6.85;;;2.00;;
13171;SDS011;6651;53.200;10.432;2022-07-10T15:44:45;8.45;;;2.50;;
13171;SDS011;6651;53.200;10.432;2022-07-10T15:47:11;6.45;;;1.98;;
13171;SDS011;6651;53.200;10.432;2022-07-10T15:49:37;7.00;;;2.00;;